Time;durP1;ratioP1;P1;durP2;ratioP2;P2;SDS_P1;SDS_P2;PMS_P1;PMS_P2;Temp;Humidity;BMP_temperature;BMP_pressure;BME280_temperature;BME280_humidity;BME280_pressure;Samples;Min_cycle;Max_cycle;Signal;HPM_P1;HPM_P2
2022/10/30 00:02:10;;;;;;;11.20;4.45;;;14.20;99.90;;;;;;5031573;28;20044;-65
2022/10/30 00:05:14;;;;;;;10.85;4.32;;;14.10;99.90;;;;;;5036612;28;20511;-66
2022/10/30 00:08:20;;;;;;;14.45;6.45;;;14.00;99.90;;;;;;5037855;28;20045;-66
2022/10/30 00:11:24;;;;;;;10.98;4.63;;;13.90;99.90;;;;;;5038361;28;20040;-66
2022/10/30 00:14:28;;;;;;;10.32;4.97;;;13.80;99.90;;;;;;5037475;28;20507;-66
2022/10/30 00:17:33;;;;;;;14.90;5.88;;;13.80;99.90;;;;;;5037988;28;20052;-66
2022/10/30 00:20:37;;;;;;;14.98;6.18;;;13.70;99.90;;;;;;5038179;28;20048;-66
2022/10/30 00:23:46;;;;;;;11.38;5.63;;;13.60;99.90;;;;;;5025289;28;20049;-66
2022/10/30 00:26:49;;;;;;;12.80;6.10;;;13.60;99.90;;;;;;5037843;28;20053;-65
2022/10/30 00:29:53;;;;;;;18.70;8.07;;;13.60;99.90;;;;;;5037946;28;20385;-65
2022/10/30 00:32:57;;;;;;;17.13;6.82;;;13.60;99.90;;;;;;5038042;28;20044;-66
2022/10/30 00:36:01;;;;;;;11.10;6.13;;;13.60;99.90;;;;;;5037817;28;20056;-65
2022/10/30 00:39:05;;;;;;;16.23;6.13;;;13.50;99.90;;;;;;5037908;28;20049;-66
2022/10/30 00:42:13;;;;;;;11.25;6.25;;;13.50;99.90;;;;;;5037839;28;20392;-66
2022/10/30 00:45:17;;;;;;;12.18;6.30;;;13.50;99.90;;;;;;5025322;28;20060;-65
2022/10/30 00:48:25;;;;;;;12.25;6.57;;;13.40;99.90;;;;;;5025099;28;20060;-65
2022/10/30 00:51:31;;;;;;;15.57;5.95;;;13.40;99.90;;;;;;5037875;28;20431;-65
2022/10/30 00:54:36;;;;;;;6.55;3.80;;;13.40;99.90;;;;;;5037313;28;20388;-66
2022/10/30 00:57:43;;;;;;;11.50;4.82;;;13.40;99.90;;;;;;5037800;28;20049;-65
2022/10/30 01:00:52;;;;;;;9.13;3.53;;;13.50;99.90;;;;;;5037747;28;20044;-65
2022/10/30 01:03:58;;;;;;;9.60;4.07;;;13.50;99.90;;;;;;5037759;28;20060;-65
2022/10/30 01:07:10;;;;;;;13.80;3.58;;;13.50;99.90;;;;;;5025314;28;20049;-66
2022/10/30 01:10:15;;;;;;;9.82;5.00;;;13.50;99.90;;;;;;5037606;28;20044;-66
2022/10/30 01:13:22;;;;;;;16.35;8.68;;;13.40;99.90;;;;;;5036333;28;20052;-66
2022/10/30 01:16:34;;;;;;;18.52;8.55;;;13.40;99.90;;;;;;5033874;28;20053;-66
2022/10/30 01:20:09;;;;;;;9.02;5.00;;;13.40;99.90;;;;;;5033149;28;20049;-66
2022/10/30 01:23:52;;;;;;;13.52;6.43;;;13.30;99.90;;;;;;5033268;28;20038;-65
2022/10/30 01:27:04;;;;;;;10.13;4.15;;;13.20;99.90;;;;;;5033500;28;20068;-66
2022/10/30 01:30:47;;;;;;;9.65;4.05;;;13.10;99.90;;;;;;5022016;28;20052;-65
2022/10/30 01:33:57;;;;;;;12.02;5.15;;;13.00;99.90;;;;;;4923531;29;20145;-65
2022/10/30 01:37:12;;;;;;;8.53;4.73;;;12.90;99.90;;;;;;4937463;28;20059;-65
2022/10/30 01:40:19;;;;;;;12.82;5.50;;;12.90;99.90;;;;;;5033142;28;20051;-65
2022/10/30 01:43:23;;;;;;;13.88;5.90;;;12.80;99.90;;;;;;5033886;28;20495;-65
2022/10/30 01:46:43;;;;;;;11.15;6.00;;;12.80;99.90;;;;;;5032802;28;20048;-66
2022/10/30 01:49:54;;;;;;;10.82;5.93;;;12.90;99.90;;;;;;5032759;28;20716;-66
2022/10/30 01:53:35;;;;;;;14.85;5.57;;;12.90;99.90;;;;;;5021623;28;20048;-66
2022/10/30 01:56:59;;;;;;;15.25;6.07;;;12.90;99.90;;;;;;5032580;28;20039;-66
2022/10/30 02:00:06;;;;;;;9.63;5.30;;;12.90;99.90;;;;;;5021325;28;20036;-66
2022/10/30 02:03:21;;;;;;;13.77;5.60;;;12.90;99.90;;;;;;5033448;28;20044;-65
2022/10/30 02:06:25;;;;;;;10.75;6.80;;;12.90;99.90;;;;;;5032739;28;20056;-66
2022/10/30 02:09:30;;;;;;;14.00;6.30;;;12.80;99.90;;;;;;5021112;28;20543;-66
2022/10/30 02:12:34;;;;;;;19.13;6.20;;;12.80;99.90;;;;;;5033301;28;20080;-66
2022/10/30 02:15:39;;;;;;;9.38;5.75;;;12.80;99.90;;;;;;5021044;28;20040;-65
2022/10/30 02:18:43;;;;;;;11.95;7.63;;;12.80;99.90;;;;;;5033360;28;20060;-66
2022/10/30 02:21:48;;;;;;;11.77;5.97;;;12.80;99.90;;;;;;5020790;28;20060;-66
2022/10/30 02:24:52;;;;;;;11.20;6.05;;;12.80;99.90;;;;;;5032778;28;20511;-65
2022/10/30 02:27:58;;;;;;;15.23;5.40;;;12.80;99.90;;;;;;5020643;28;20404;-66
2022/10/30 02:31:05;;;;;;;14.32;5.70;;;12.90;99.90;;;;;;5032242;28;20503;-66
2022/10/30 02:34:09;;;;;;;17.13;6.53;;;12.80;99.90;;;;;;5032117;28;20048;-66
2022/10/30 02:37:13;;;;;;;14.05;6.65;;;12.80;99.90;;;;;;5020811;28;20393;-66
2022/10/30 02:40:17;;;;;;;18.05;6.60;;;12.80;99.90;;;;;;5032911;28;20060;-65
2022/10/30 02:43:21;;;;;;;15.57;5.90;;;12.70;99.90;;;;;;5020740;28;20048;-66
2022/10/30 02:46:24;;;;;;;12.88;5.63;;;12.70;99.90;;;;;;5020611;28;20037;-66
2022/10/30 02:49:28;;;;;;;12.13;6.13;;;12.60;99.90;;;;;;5032862;28;20056;-66
2022/10/30 02:52:32;;;;;;;16.08;6.85;;;12.60;99.90;;;;;;5020446;28;20060;-66
2022/10/30 02:55:36;;;;;;;11.40;6.28;;;12.50;99.90;;;;;;5019737;28;20053;-66
2022/10/30 02:58:41;;;;;;;13.35;6.20;;;12.50;99.90;;;;;;5020444;28;20407;-65
2022/10/30 03:01:46;;;;;;;13.05;6.75;;;12.50;99.90;;;;;;5020096;28;20056;-65
2022/10/30 03:04:49;;;;;;;12.15;6.82;;;12.40;99.90;;;;;;5019926;28;20450;-65
2022/10/30 03:07:54;;;;;;;14.73;8.18;;;12.20;99.90;;;;;;5031410;28;20045;-66
2022/10/30 03:11:08;;;;;;;19.02;7.57;;;12.00;99.90;;;;;;5032382;28;20048;-66
2022/10/30 03:14:12;;;;;;;19.02;8.70;;;12.00;99.90;;;;;;5031955;28;20045;-65
2022/10/30 03:17:16;;;;;;;18.60;8.90;;;11.90;99.90;;;;;;5031417;28;20044;-65
2022/10/30 03:20:20;;;;;;;18.77;8.73;;;11.90;99.90;;;;;;5031662;28;20053;-65
2022/10/30 03:23:25;;;;;;;16.17;8.23;;;11.90;99.90;;;;;;5008100;28;20044;-66
2022/10/30 03:26:29;;;;;;;13.52;6.78;;;11.80;99.90;;;;;;5019669;28;20048;-65
2022/10/30 03:29:40;;;;;;;11.88;6.28;;;11.80;99.90;;;;;;5031154;28;20045;-65
2022/10/30 03:32:45;;;;;;;16.13;7.30;;;11.70;99.90;;;;;;5019808;28;20041;-66
2022/10/30 03:35:51;;;;;;;14.32;7.20;;;11.70;99.90;;;;;;5019399;28;20392;-65
2022/10/30 03:38:55;;;;;;;17.20;8.85;;;11.70;99.90;;;;;;5030444;28;20499;-65
2022/10/30 03:42:01;;;;;;;21.13;10.60;;;11.60;99.90;;;;;;5030993;28;20057;-65
2022/10/30 03:45:06;;;;;;;21.85;8.80;;;11.60;99.90;;;;;;5031091;28;20048;-65
2022/10/30 03:48:10;;;;;;;19.83;9.73;;;11.60;99.90;;;;;;5019328;28;20044;-65
2022/10/30 03:51:15;;;;;;;20.35;9.90;;;11.60;99.90;;;;;;5019191;28;20040;-65
2022/10/30 03:54:19;;;;;;;20.05;8.77;;;11.50;99.90;;;;;;5019130;28;20040;-66
2022/10/30 03:57:22;;;;;;;19.52;8.35;;;11.50;99.90;;;;;;5019446;28;20060;-65
2022/10/30 04:00:46;;;;;;;28.67;9.55;;;11.60;99.90;;;;;;5031527;28;20493;-66
2022/10/30 04:03:50;;;;;;;22.17;11.93;;;11.50;99.90;;;;;;5019155;28;20045;-65
2022/10/30 04:06:54;;;;;;;22.00;10.98;;;11.50;99.90;;;;;;5030747;28;20048;-65
2022/10/30 04:09:59;;;;;;;13.55;8.02;;;11.60;99.90;;;;;;5030384;28;20040;-65
2022/10/30 04:13:06;;;;;;;15.60;7.70;;;11.60;99.90;;;;;;5007742;28;20041;-65
2022/10/30 04:16:12;;;;;;;17.42;8.13;;;11.60;99.90;;;;;;5019317;28;20037;-66
2022/10/30 04:19:17;;;;;;;13.85;7.45;;;11.60;99.90;;;;;;5018943;28;20524;-66
2022/10/30 04:22:22;;;;;;;18.40;7.70;;;13.60;99.90;;;;;;5019297;28;20420;-65
2022/10/30 04:25:28;;;;;;;15.43;7.47;;;11.50;99.90;;;;;;5030143;28;20052;-65
2022/10/30 04:28:33;;;;;;;18.10;8.27;;;11.40;99.90;;;;;;5018979;28;20044;-65
2022/10/30 04:31:38;;;;;;;17.52;7.70;;;11.50;99.90;;;;;;5031462;28;20432;-66
2022/10/30 04:34:42;;;;;;;18.17;7.32;;;11.40;99.90;;;;;;5030549;28;20040;-65
2022/10/30 04:37:53;;;;;;;13.93;7.90;;;11.50;99.90;;;;;;5007501;28;20048;-65
2022/10/30 04:40:57;;;;;;;18.25;8.27;;;10.30;99.90;;;;;;5019168;28;20060;-65
2022/10/30 04:44:13;;;;;;;17.98;8.35;;;11.60;99.90;;;;;;5018788;28;20492;-66
2022/10/30 04:47:17;;;;;;;14.63;7.43;;;11.70;99.90;;;;;;5018774;28;20052;-65
2022/10/30 04:50:21;;;;;;;16.15;7.95;;;11.70;99.90;;;;;;5032452;28;20056;-66
2022/10/30 04:53:25;;;;;;;18.33;8.07;;;11.60;99.90;;;;;;5022150;28;20041;-65
2022/10/30 04:56:36;;;;;;;22.25;8.50;;;11.60;99.90;;;;;;5022661;28;20495;-66
2022/10/30 04:59:40;;;;;;;17.38;8.25;;;11.60;99.90;;;;;;5022604;28;20052;-65
2022/10/30 05:02:43;;;;;;;14.90;8.38;;;11.60;99.90;;;;;;5022002;28;20036;-65
2022/10/30 05:06:05;;;;;;;16.00;9.65;;;11.60;99.90;;;;;;5034852;28;20041;-66
2022/10/30 05:09:09;;;;;;;19.63;10.82;;;11.50;99.90;;;;;;5033910;28;20045;-65
2022/10/30 05:12:18;;;;;;;19.42;9.38;;;11.50;99.90;;;;;;5033478;28;20352;-65
2022/10/30 05:15:29;;;;;;;;;;;11.50;99.90;;;;;;5022562;28;20404;-65
2022/10/30 05:18:33;;;;;;;19.80;9.82;;;11.40;99.90;;;;;;5022381;28;19913;-66
2022/10/30 05:21:39;;;;;;;19.00;9.55;;;11.30;99.90;;;;;;5021888;28;20052;-66
2022/10/30 05:24:43;;;;;;;15.77;9.70;;;11.20;99.90;;;;;;5034015;28;20404;-65
2022/10/30 05:27:47;;;;;;;18.58;9.55;;;11.20;99.90;;;;;;5021790;28;20036;-65
2022/10/30 05:30:54;;;;;;;24.33;9.70;;;11.10;99.90;;;;;;5033353;28;20040;-65
2022/10/30 05:34:24;;;;;;;18.48;8.57;;;11.00;99.90;;;;;;5034405;28;20044;-65
2022/10/30 05:37:30;;;;;;;17.95;8.95;;;11.00;99.90;;;;;;5021881;28;20416;-65
2022/10/30 05:40:35;;;;;;;19.80;8.73;;;10.90;99.90;;;;;;5021932;28;20048;-65
2022/10/30 05:43:39;;;;;;;16.98;8.18;;;10.90;99.90;;;;;;5021829;28;20052;-65
2022/10/30 05:46:44;;;;;;;13.07;7.70;;;10.90;99.90;;;;;;5021579;28;20044;-66
2022/10/30 05:49:57;;;;;;;14.90;7.47;;;10.80;99.90;;;;;;5032767;28;20408;-65
2022/10/30 05:53:04;;;;;;;19.92;8.90;;;10.80;99.90;;;;;;5021410;28;20053;-66
2022/10/30 05:56:07;;;;;;;17.23;8.73;;;10.90;99.90;;;;;;5021404;28;20044;-65
2022/10/30 05:59:12;;;;;;;21.38;10.48;;;10.90;99.90;;;;;;5021604;28;20048;-65
2022/10/30 06:02:16;;;;;;;18.33;9.95;;;11.00;99.90;;;;;;5031840;28;20044;-65
2022/10/30 06:05:20;;;;;;;21.90;9.65;;;11.20;99.90;;;;;;5021303;28;20480;-65
2022/10/30 06:08:24;;;;;;;16.80;8.13;;;11.30;99.90;;;;;;5021211;28;20044;-65
2022/10/30 06:11:31;;;;;;;21.15;9.07;;;11.40;99.90;;;;;;5020877;28;20048;-64
2022/10/30 06:14:37;;;;;;;15.85;9.27;;;11.40;99.90;;;;;;5021277;28;20040;-65
2022/10/30 06:17:41;;;;;;;19.88;7.88;;;11.50;99.90;;;;;;5020806;28;20052;-65
2022/10/30 06:20:54;;;;;;;18.85;9.80;;;11.60;99.90;;;;;;5032881;28;20408;-65
2022/10/30 06:24:19;;;;;;;17.83;9.15;;;11.70;99.90;;;;;;5020558;28;20052;-65
2022/10/30 06:27:41;;;;;;;18.42;8.10;;;15.50;99.90;;;;;;5031841;28;20049;-66
2022/10/30 06:30:45;;;;;;;16.13;7.80;;;15.60;99.90;;;;;;5032666;28;20388;-66
2022/10/30 06:33:49;;;;;;;16.10;7.45;;;19.70;99.90;;;;;;5019951;28;20594;-66
2022/10/30 06:36:53;;;;;;;12.63;5.72;;;19.70;99.90;;;;;;5020581;28;20384;-66
2022/10/30 06:39:57;;;;;;;9.60;6.40;;;21.30;99.90;;;;;;5032585;28;20511;-65
2022/10/30 06:43:20;;;;;;;13.35;6.32;;;22.40;99.90;;;;;;5032084;28;20041;-65
2022/10/30 06:46:31;;;;;;;12.52;5.88;;;23.70;99.90;;;;;;5020504;28;20045;-66
2022/10/30 06:49:36;;;;;;;12.43;5.85;;;24.10;99.90;;;;;;5031311;28;20068;-65
2022/10/30 06:52:40;;;;;;;10.40;5.50;;;25.30;99.90;;;;;;5031571;28;20048;-66
2022/10/30 06:55:44;;;;;;;9.65;5.25;;;26.40;99.90;;;;;;5032212;28;20040;-66
2022/10/30 06:59:00;;;;;;;14.15;6.13;;;27.30;98.70;;;;;;5020173;28;20044;-66
2022/10/30 07:02:11;;;;;;;8.23;5.63;;;27.00;97.60;;;;;;5031552;28;20400;-66
2022/10/30 07:05:35;;;;;;;9.70;5.05;;;27.40;97.30;;;;;;5031749;28;20045;-66
2022/10/30 07:08:39;;;;;;;9.23;5.68;;;28.20;96.50;;;;;;5031784;28;20049;-66
2022/10/30 07:11:44;;;;;;;10.57;5.20;;;28.30;95.40;;;;;;5019557;28;20079;-67
2022/10/30 07:15:18;;;;;;;9.40;5.32;;;27.40;95.00;;;;;;5030966;28;20064;-67
2022/10/30 07:18:42;;;;;;;8.95;5.20;;;25.90;96.10;;;;;;5031772;28;20044;-66
2022/10/30 07:21:46;;;;;;;9.27;4.75;;;26.90;95.70;;;;;;5019484;28;20053;-66
2022/10/30 07:24:50;;;;;;;12.43;5.60;;;28.00;95.10;;;;;;5019429;28;20052;-66
2022/10/30 07:28:04;;;;;;;7.13;4.93;;;29.10;94.20;;;;;;5031857;28;20041;-66
2022/10/30 07:31:14;;;;;;;11.32;4.78;;;30.10;92.90;;;;;;5030894;28;20037;-66
2022/10/30 07:34:28;;;;;;;9.30;4.95;;;30.50;92.40;;;;;;5031508;28;20389;-66
2022/10/30 07:37:51;;;;;;;10.23;5.38;;;29.60;92.20;;;;;;5031528;28;20067;-66
2022/10/30 07:40:56;;;;;;;9.32;5.45;;;29.60;92.00;;;;;;5031559;28;20056;-66
2022/10/30 07:44:23;;;;;;;11.82;5.15;;;29.60;92.00;;;;;;5034084;28;20057;-66
2022/10/30 07:47:53;;;;;;;11.43;5.97;;;29.50;92.00;;;;;;5030030;28;20048;-66
2022/10/30 07:51:14;;;;;;;10.63;5.50;;;29.50;91.70;;;;;;5019233;28;20045;-66
2022/10/30 07:54:17;;;;;;;8.85;4.97;;;29.20;91.60;;;;;;5030582;28;20044;-66
2022/10/30 07:57:21;;;;;;;10.15;5.05;;;29.90;91.50;;;;;;5019087;28;20036;-66
2022/10/30 08:01:04;;;;;;;13.13;4.90;;;31.10;90.70;;;;;;4970442;28;20042;-66
2022/10/30 08:04:12;;;;;;;8.57;4.78;;;31.40;90.00;;;;;;4969993;28;20410;-67
2022/10/30 08:07:18;;;;;;;7.30;4.47;;;31.20;89.40;;;;;;5030390;28;20044;-66
2022/10/30 08:10:22;;;;;;;8.90;4.80;;;30.30;89.70;;;;;;5019061;28;20072;-66
2022/10/30 08:13:26;;;;;;;7.10;4.20;;;30.30;89.30;;;;;;5030262;28;20045;-67
2022/10/30 08:16:30;;;;;;;5.32;4.63;;;31.00;88.10;;;;;;5030325;28;20040;-67
2022/10/30 08:19:35;;;;;;;12.77;4.90;;;31.00;88.00;;;;;;5019081;28;20048;-66
2022/10/30 08:22:49;;;;;;;10.75;4.97;;;29.60;89.00;;;;;;5031153;28;20057;-67
2022/10/30 08:26:00;;;;;;;9.57;4.70;;;28.60;90.10;;;;;;5021704;28;20048;-66
2022/10/30 08:29:05;;;;;;;8.65;4.13;;;27.00;91.20;;;;;;5022831;28;20056;-66
2022/10/30 08:32:10;;;;;;;9.50;4.65;;;28.00;90.90;;;;;;5023156;28;20036;-66
2022/10/30 08:35:34;;;;;;;9.73;4.28;;;29.80;90.10;;;;;;5035772;28;20045;-66
2022/10/30 08:38:38;;;;;;;5.85;3.97;;;29.80;89.60;;;;;;5022794;28;20053;-67
2022/10/30 08:42:05;;;;;;;11.05;4.47;;;30.90;88.50;;;;;;5034967;28;20057;-66
2022/10/30 08:45:19;;;;;;;8.02;4.25;;;30.70;87.40;;;;;;5033704;28;20057;-67
2022/10/30 08:48:39;;;;;;;10.52;3.83;;;30.40;87.90;;;;;;5022367;28;20045;-67
2022/10/30 08:51:44;;;;;;;10.73;3.92;;;30.50;87.50;;;;;;5034779;28;20052;-67
2022/10/30 08:54:49;;;;;;;10.52;4.13;;;30.00;88.20;;;;;;5022615;28;20052;-67
2022/10/30 08:57:54;;;;;;;6.85;3.80;;;30.20;87.70;;;;;;5022259;28;20064;-67
2022/10/30 09:00:58;;;;;;;4.65;3.35;;;30.00;87.80;;;;;;5022718;28;20072;-66
2022/10/30 09:04:21;;;;;;;8.98;3.70;;;29.10;88.90;;;;;;5034523;28;20045;-66
2022/10/30 09:07:37;;;;;;;8.73;3.90;;;28.60;89.90;;;;;;5034470;28;20496;-67
2022/10/30 09:11:00;;;;;;;6.45;3.67;;;28.70;89.60;;;;;;5034405;28;20044;-67
2022/10/30 09:14:03;;;;;;;9.63;3.85;;;29.40;88.40;;;;;;5021683;28;20032;-66
2022/10/30 09:17:08;;;;;;;8.18;3.60;;;29.60;89.60;;;;;;5034021;28;20499;-65
2022/10/30 09:20:14;;;;;;;7.50;4.07;;;30.30;87.20;;;;;;5033489;28;20044;-65
2022/10/30 09:23:18;;;;;;;7.68;3.50;;;30.00;88.80;;;;;;5021888;28;20044;-66
2022/10/30 09:26:25;;;;;;;6.97;3.85;;;31.20;88.40;;;;;;5021936;28;20051;-65
2022/10/30 09:29:36;;;;;;;9.05;3.70;;;30.60;87.40;;;;;;5021773;28;20052;-65
2022/10/30 09:32:58;;;;;;;7.18;3.70;;;30.60;86.80;;;;;;5021682;28;20049;-65
2022/10/30 09:36:15;;;;;;;6.72;3.92;;;31.80;86.90;;;;;;5032210;28;20033;-66
2022/10/30 09:39:19;;;;;;;7.40;3.38;;;34.50;84.90;;;;;;5032816;28;20060;-66
2022/10/30 09:42:47;;;;;;;7.90;4.00;;;36.00;81.80;;;;;;5033091;28;20057;-66
2022/10/30 09:46:14;;;;;;;7.35;3.83;;;35.20;79.30;;;;;;5021552;28;20040;-65
2022/10/30 09:49:53;;;;;;;8.88;3.47;;;33.90;82.10;;;;;;5033566;28;20048;-65
2022/10/30 09:53:06;;;;;;;8.18;3.50;;;35.10;80.90;;;;;;5032786;28;20036;-66
2022/10/30 09:56:21;;;;;;;6.95;3.65;;;35.40;79.70;;;;;;5020808;28;20048;-66
2022/10/30 09:59:37;;;;;;;11.18;4.28;;;37.00;78.70;;;;;;5033698;28;20041;-66
2022/10/30 10:02:50;;;;;;;8.18;4.07;;;37.70;76.20;;;;;;5021150;28;20053;-66
2022/10/30 10:05:58;;;;;;;6.38;4.18;;;36.90;77.00;;;;;;5033474;28;20048;-66
2022/10/30 10:09:18;;;;;;;7.55;4.30;;;37.50;75.40;;;;;;5033346;28;20515;-66
2022/10/30 10:12:46;;;;;;;9.82;4.13;;;37.60;74.90;;;;;;5033393;28;20044;-65
2022/10/30 10:16:04;;;;;;;8.40;4.05;;;38.50;73.80;;;;;;5033368;28;20049;-66
2022/10/30 10:19:10;;;;;;;10.27;3.65;;;36.30;75.10;;;;;;5033276;28;20044;-66
2022/10/30 10:22:43;;;;;;;11.23;4.88;;;37.70;74.70;;;;;;5033191;28;20064;-66
2022/10/30 10:25:53;;;;;;;7.55;4.22;;;34.80;74.20;;;;;;5032727;28;20040;-65
2022/10/30 10:29:13;;;;;;;10.57;5.40;;;34.00;77.10;;;;;;5032916;28;20526;-65
2022/10/30 10:32:27;;;;;;;;;;;34.70;76.10;;;;;;5033575;28;20040;-65
2022/10/30 10:35:37;;;;;;;9.73;4.72;;;35.90;76.60;;;;;;5032785;28;19909;-66
2022/10/30 10:39:00;;;;;;;9.80;5.82;;;37.40;74.00;;;;;;5032941;28;20048;-67
2022/10/30 10:42:22;;;;;;;10.18;5.72;;;38.80;71.70;;;;;;5032657;28;20045;-66
2022/10/30 10:46:07;;;;;;;13.10;6.18;;;37.30;73.00;;;;;;5032210;28;20044;-66
2022/10/30 10:49:26;;;;;;;11.18;5.32;;;35.00;73.40;;;;;;4937124;28;20435;-66
2022/10/30 10:52:38;;;;;;;9.68;5.32;;;37.30;74.30;;;;;;5032537;28;20040;-66
2022/10/30 10:55:49;;;;;;;8.90;4.85;;;38.10;72.10;;;;;;5032246;28;20397;-66
2022/10/30 10:58:58;;;;;;;7.22;4.65;;;38.90;72.10;;;;;;5032223;28;20061;-66
2022/10/30 11:02:22;;;;;;;10.30;4.57;;;37.90;72.00;;;;;;5032425;28;20108;-66
2022/10/30 11:05:35;;;;;;;6.90;4.50;;;39.70;71.40;;;;;;5032044;28;20388;-66
2022/10/30 11:08:38;;;;;;;8.25;4.13;;;41.00;69.30;;;;;;5032024;28;20052;-66
2022/10/30 11:11:43;;;;;;;11.95;6.10;;;40.80;69.00;;;;;;5032290;28;20041;-66
2022/10/30 11:14:47;;;;;;;11.48;3.97;;;41.40;67.90;;;;;;5031981;28;20048;-67
2022/10/30 11:18:18;;;;;;;12.15;4.03;;;39.80;68.10;;;;;;5032160;28;20049;-67
2022/10/30 11:21:24;;;;;;;12.88;3.80;;;40.20;67.30;;;;;;5032018;28;20057;-66
2022/10/30 11:24:33;;;;;;;8.10;4.13;;;40.80;68.50;;;;;;5031968;28;20052;-66
2022/10/30 11:27:37;;;;;;;7.50;4.10;;;40.00;67.90;;;;;;5031728;28;20037;-66
2022/10/30 11:30:41;;;;;;;7.10;3.67;;;39.50;68.20;;;;;;5031886;28;20045;-66
2022/10/30 11:33:46;;;;;;;9.15;3.60;;;40.10;67.80;;;;;;5031567;28;20037;-66
2022/10/30 11:36:52;;;;;;;5.93;3.47;;;40.10;67.80;;;;;;5031574;28;20044;-66
2022/10/30 11:40:11;;;;;;;9.30;4.03;;;40.00;68.40;;;;;;5031436;28;20052;-66
2022/10/30 11:43:21;;;;;;;11.68;4.60;;;39.70;68.30;;;;;;5031511;28;20074;-67
2022/10/30 11:46:25;;;;;;;7.18;3.70;;;41.00;68.20;;;;;;5031613;28;20052;-66
2022/10/30 11:49:50;;;;;;;5.80;3.33;;;41.80;66.50;;;;;;5031626;28;20052;-66
2022/10/30 11:53:00;;;;;;;8.10;3.80;;;42.00;66.70;;;;;;5031776;28;20481;-67
2022/10/30 11:56:18;;;;;;;10.90;3.22;;;41.60;66.20;;;;;;5031012;28;20037;-66
2022/10/30 11:59:23;;;;;;;7.07;3.17;;;40.80;66.70;;;;;;5031046;28;20060;-66
2022/10/30 12:02:28;;;;;;;6.90;3.40;;;40.10;65.40;;;;;;5031451;28;20056;-66
2022/10/30 12:05:33;;;;;;;6.40;3.65;;;40.30;66.10;;;;;;5030778;28;20060;-67
2022/10/30 12:08:37;;;;;;;6.93;3.58;;;38.80;66.50;;;;;;5031477;28;20048;-66
2022/10/30 12:11:44;;;;;;;6.60;3.45;;;39.00;67.20;;;;;;5030941;28;20044;-66
2022/10/30 12:14:49;;;;;;;9.20;3.70;;;38.20;67.20;;;;;;5031169;28;20496;-66
2022/10/30 12:18:00;;;;;;;8.85;3.63;;;39.00;67.20;;;;;;5031200;28;20044;-66
2022/10/30 12:21:05;;;;;;;10.00;2.95;;;38.10;67.30;;;;;;5031340;28;20036;-66
2022/10/30 12:24:18;;;;;;;8.18;3.88;;;38.60;67.20;;;;;;5030794;28;20503;-66
2022/10/30 12:27:23;;;;;;;8.10;2.80;;;36.80;67.20;;;;;;5031315;28;20044;-66
2022/10/30 12:30:32;;;;;;;8.85;3.20;;;38.10;67.70;;;;;;5031352;28;20045;-66
2022/10/30 12:33:49;;;;;;;9.95;3.45;;;38.80;67.10;;;;;;5030876;28;20044;-66
2022/10/30 12:37:18;;;;;;;8.32;3.45;;;39.40;67.00;;;;;;5030947;28;20041;-67
2022/10/30 12:40:36;;;;;;;5.13;2.90;;;39.60;66.30;;;;;;5031400;28;20052;-66
2022/10/30 12:43:44;;;;;;;5.95;3.10;;;39.40;66.20;;;;;;5030971;28;20057;-66
2022/10/30 12:47:28;;;;;;;11.38;2.92;;;39.30;65.70;;;;;;5030818;28;20044;-66
2022/10/30 12:50:44;;;;;;;5.30;2.88;;;38.80;66.40;;;;;;5028028;28;20057;-67
2022/10/30 12:54:07;;;;;;;5.97;2.97;;;39.00;65.60;;;;;;5030932;28;20049;-66
2022/10/30 12:57:22;;;;;;;9.73;3.65;;;37.80;66.90;;;;;;5030573;28;20041;-66
2022/10/30 13:00:29;;;;;;;6.88;3.10;;;38.90;65.80;;;;;;5031161;28;20044;-66
2022/10/30 13:03:49;;;;;;;5.65;2.90;;;39.90;65.70;;;;;;5030432;28;20060;-66
2022/10/30 13:07:10;;;;;;;7.00;2.92;;;40.00;65.40;;;;;;5030667;28;20237;-66
2022/10/30 13:10:42;;;;;;;6.03;3.00;;;38.80;66.20;;;;;;5030410;28;20116;-66
2022/10/30 13:13:50;;;;;;;5.95;2.70;;;39.30;65.90;;;;;;5034025;28;20389;-66
2022/10/30 13:16:54;;;;;;;3.92;2.42;;;40.00;65.60;;;;;;5033972;28;20037;-66
2022/10/30 13:19:59;;;;;;;6.25;3.00;;;40.10;64.50;;;;;;5034538;28;20052;-66
2022/10/30 13:23:11;;;;;;;9.32;3.03;;;40.20;65.10;;;;;;5034064;28;20044;-66
2022/10/30 13:26:53;;;;;;;7.65;2.65;;;39.70;64.80;;;;;;5034286;28;20499;-66
2022/10/30 13:30:00;;;;;;;5.30;2.65;;;39.80;65.60;;;;;;4934254;29;20055;-67
2022/10/30 13:33:13;;;;;;;6.78;2.58;;;40.00;65.20;;;;;;4934125;29;20047;-66
2022/10/30 13:36:27;;;;;;;4.70;2.67;;;39.90;64.30;;;;;;5034131;28;20036;-66
2022/10/30 13:39:42;;;;;;;7.32;2.92;;;39.60;64.70;;;;;;5033796;28;20048;-66
2022/10/30 13:43:27;;;;;;;10.48;2.80;;;38.90;65.80;;;;;;5034023;28;20045;-66
2022/10/30 13:46:48;;;;;;;5.20;2.33;;;39.10;65.50;;;;;;5034115;28;20395;-65
2022/10/30 13:50:01;;;;;;;5.95;2.42;;;38.30;64.90;;;;;;5033539;28;20056;-66
2022/10/30 13:53:14;;;;;;;5.70;2.30;;;38.20;65.60;;;;;;5033741;28;20031;-66
2022/10/30 13:56:20;;;;;;;7.47;2.25;;;38.00;65.30;;;;;;5033412;28;20044;-66
2022/10/30 14:00:14;;;;;;;8.80;2.30;;;37.20;64.90;;;;;;5033767;28;20044;-66
2022/10/30 14:03:42;;;;;;;6.00;2.55;;;37.50;65.10;;;;;;5033288;28;20056;-66
2022/10/30 14:06:54;;;;;;;8.82;2.83;;;37.60;65.10;;;;;;5033699;28;20052;-66
2022/10/30 14:10:06;;;;;;;6.70;2.50;;;37.60;65.60;;;;;;5033427;28;20048;-66
2022/10/30 14:13:14;;;;;;;5.40;2.67;;;37.90;65.60;;;;;;5033126;28;20062;-66
2022/10/30 14:16:32;;;;;;;6.05;2.70;;;37.50;65.50;;;;;;5033469;28;20041;-66
2022/10/30 14:20:01;;;;;;;4.57;2.38;;;37.70;66.00;;;;;;5033378;28;20056;-66
2022/10/30 14:23:22;;;;;;;6.82;2.45;;;37.90;65.50;;;;;;5032351;28;20048;-66
2022/10/30 14:26:26;;;;;;;5.18;2.30;;;38.00;66.20;;;;;;5033252;28;20388;-66
2022/10/30 14:29:34;;;;;;;6.40;2.05;;;37.80;65.10;;;;;;5032793;28;20051;-66
2022/10/30 14:32:39;;;;;;;8.68;2.38;;;37.50;65.90;;;;;;5032640;28;20074;-66
2022/10/30 14:35:45;;;;;;;6.28;2.17;;;37.10;66.70;;;;;;5032817;28;20415;-66
2022/10/30 14:38:53;;;;;;;5.13;2.47;;;36.90;66.80;;;;;;5032832;28;20052;-66
2022/10/30 14:42:07;;;;;;;8.40;2.45;;;36.50;66.20;;;;;;5032601;28;20036;-66
2022/10/30 14:45:30;;;;;;;10.45;3.03;;;36.30;66.80;;;;;;5032401;28;20037;-65
2022/10/30 14:48:52;;;;;;;5.32;2.35;;;35.90;67.70;;;;;;5032678;28;20048;-66
2022/10/30 14:52:20;;;;;;;4.00;2.20;;;35.80;68.30;;;;;;5032915;28;20381;-66
2022/10/30 14:55:53;;;;;;;6.70;2.53;;;35.60;68.70;;;;;;5031873;28;20044;-65
2022/10/30 14:59:18;;;;;;;7.38;3.28;;;35.40;69.50;;;;;;5032665;28;20429;-65
2022/10/30 15:02:46;;;;;;;6.28;2.50;;;34.90;70.50;;;;;;5032534;28;20048;-65
2022/10/30 15:06:16;;;;;;;9.18;2.70;;;34.60;70.70;;;;;;5032239;28;20049;-65
2022/10/30 15:09:26;;;;;;;9.48;3.00;;;34.00;71.20;;;;;;5020613;28;20120;-65
2022/10/30 15:12:39;;;;;;;6.70;2.72;;;33.50;71.70;;;;;;5032345;28;20591;-65
2022/10/30 15:15:45;;;;;;;7.43;2.63;;;33.20;72.30;;;;;;5032265;28;20037;-66
2022/10/30 15:19:01;;;;;;;8.48;3.42;;;32.70;73.10;;;;;;5032061;28;20048;-65
2022/10/30 15:22:12;;;;;;;16.42;3.40;;;32.40;73.80;;;;;;5032257;28;20045;-65
2022/10/30 15:25:19;;;;;;;14.33;4.10;;;31.90;74.60;;;;;;5031883;28;20044;-65
2022/10/30 15:28:27;;;;;;;11.65;3.88;;;31.50;75.20;;;;;;5031718;28;20037;-65
2022/10/30 15:31:32;;;;;;;12.52;4.70;;;30.90;75.60;;;;;;5031681;28;20407;-66
2022/10/30 15:34:36;;;;;;;10.82;4.30;;;30.50;76.10;;;;;;5030527;28;20503;-65
2022/10/30 15:37:55;;;;;;;10.85;3.53;;;30.00;76.90;;;;;;5031619;28;20135;-65
2022/10/30 15:41:02;;;;;;;9.68;3.50;;;29.30;77.50;;;;;;5031552;28;20056;-68
2022/10/30 15:44:05;;;;;;;10.80;3.88;;;28.60;78.30;;;;;;5031410;28;20052;-66
2022/10/30 15:47:19;;;;;;;8.85;3.10;;;28.00;79.40;;;;;;5031686;28;20056;-66
2022/10/30 15:50:23;;;;;;;10.60;3.35;;;27.40;81.40;;;;;;5031476;28;20048;-67
2022/10/30 15:53:52;;;;;;;11.82;4.18;;;26.70;82.70;;;;;;5031116;28;20396;-66
2022/10/30 15:56:58;;;;;;;14.02;4.25;;;25.90;85.10;;;;;;5031485;28;20468;-67
2022/10/30 16:00:06;;;;;;;14.98;4.30;;;25.20;87.60;;;;;;5031555;28;20033;-66
2022/10/30 16:03:16;;;;;;;13.77;3.50;;;24.60;89.30;;;;;;5031815;28;20040;-66
2022/10/30 16:06:25;;;;;;;11.63;3.63;;;24.10;89.70;;;;;;5031735;28;20049;-67
2022/10/30 16:09:29;;;;;;;17.40;3.20;;;23.00;89.30;;;;;;5031454;28;20495;-67
2022/10/30 16:12:34;;;;;;;7.10;2.97;;;23.00;89.90;;;;;;5031323;28;20056;-67
2022/10/30 16:15:38;;;;;;;14.05;3.30;;;22.60;90.50;;;;;;5030907;28;20049;-67
2022/10/30 16:18:43;;;;;;;13.90;2.95;;;22.40;91.10;;;;;;5031308;28;20048;-66
2022/10/30 16:21:48;;;;;;;9.07;2.85;;;22.10;91.60;;;;;;5031465;28;20384;-66
2022/10/30 16:24:54;;;;;;;12.68;3.65;;;21.80;92.00;;;;;;5019200;28;20049;-66
2022/10/30 16:27:58;;;;;;;15.02;2.85;;;21.60;92.40;;;;;;5031144;28;20041;-67